Terminal Aerodrome Forecast
Issued by NWS

Home | Current Version | Previous Version | Text Only | Print | Product List | Glossary On
Versions: 1 2 3 4 5 6 7 8 9 10 11 12
000
FTUS45 KABQ 171724
TAFTCC
TAF
KTCC 171724Z 1718/1818 14006KT P6SM FEW250
     FM180400 19006KT P6SM BKN200
     FM181000 25006KT P6SM OVC120=

USA.gov is the U.S. government's official web portal to all federal, state and local government web resources and services.